Billy Bishop Toronto City Centre Airport

CYTZ · Ontario, Canada

METAR anciennes CYTZ · Aéroport Billy-Bishop de Toronto

Tu vois ci-dessous les METAR des derniers jours. Sélectionne une année pour parcourir les METAR plus anciens, à partir de l'année 2007.

2 décembre 2022

Temps Code Temps Temp. Vue Base cloud Vent METAR/SPECI
08:00
V
3 °C 9 mi 11.000 ft 170° 170° 9 - 17 kt METAR CYTZ 021300Z AUTO 17009G17KT 9SM OVC110 03/M02 A3032 RMK SLP272
07:00
V
3 °C 9 mi 11.000 ft 170° 170° 9 kt METAR CYTZ 021200Z AUTO 17009KT 9SM OVC110 03/M02 A3033 RMK SLP277
06:00
V
3 °C 9 mi 12.000 ft 210° 210° 11 kt METAR CYTZ 021100Z AUTO 21011KT 9SM OVC120 03/M02 A3034 RMK SLP280
05:00
V
2 °C 9 mi 12.000 ft 200° 200° 13 - 18 kt METAR CYTZ 021000Z AUTO 20013G18KT 9SM OVC120 02/M02 A3035 RMK SLP284
04:00
V
1 °C 9 mi 13.000 ft 300° 300° 7 kt METAR CYTZ 020900Z AUTO 30007KT 190V310 9SM BKN130 01/M02 A3037 RMK SLP290
03:00
V
1 °C 9 mi 12.000 ft 200° 200° 6 kt METAR CYTZ 020800Z AUTO 20006KT 180V260 9SM BKN120 OVC140 01/M03 A3039 RMK SLP297
02:00
V
0 °C 9 mi - 230° 230° 5 kt METAR CYTZ 020700Z AUTO 23005KT 200V300 9SM FEW034 SCT130 00/M04 A3039 RMK SLP297
01:00
V
-1 °C 9 mi - 290° 290° 7 kt METAR CYTZ 020600Z AUTO 29007KT 9SM CLR M01/M05 A3041 RMK SLP302
00:00
V
-1 °C 9 mi - 300° 300° 8 kt METAR CYTZ 020500Z AUTO 30008KT 9SM CLR M01/M06 A3042 RMK SLP305

1 décembre 2022

Temps Code Temps Temp. Vue Base cloud Vent METAR/SPECI
23:00
V
-1 °C 9 mi - 310° 310° 9 kt METAR CYTZ 020400Z AUTO 31009KT 9SM CLR M01/M06 A3042 RMK SLP306
22:00
V
-1 °C 9 mi - 240° 240° 9 kt METAR CYTZ 020300Z AUTO 24009KT 220V300 9SM CLR M01/M06 A3042 RMK SLP307
21:00
V
0 °C 9 mi 3.200 ft 260° 260° 10 kt METAR CYTZ 020200Z AUTO 26010KT 9SM BKN032 M00/M06 A3042 RMK PRESFR SLP309
20:00
V
0 °C 9 mi 3.000 ft 260° 260° 13 - 18 kt METAR CYTZ 020100Z AUTO 26013G18KT 9SM OVC030 00/M05 A3043 RMK SLP311
19:00
V
1 °C 9 mi 3.200 ft 250° 250° 11 - 18 kt METAR CYTZ 020000Z AUTO 25011G18KT 9SM OVC032 01/M05 A3042 RMK SLP308
18:00
V
1 °C 9 mi 3.600 ft 250° 250° 15 kt METAR CYTZ 012300Z AUTO 25015KT 9SM OVC036 01/M05 A3042 RMK SLP306
17:00
V
1 °C 9 mi 3.800 ft 260° 260° 16 - 26 kt METAR CYTZ 012200Z AUTO 26016G26KT 9SM OVC038 01/M05 A3039 RMK SLP298
16:00
V
1 °C 9 mi 4.400 ft 270° 270° 18 - 25 kt METAR CYTZ 012100Z AUTO 27018G25KT 9SM OVC044 01/M04 A3038 RMK SLP293
15:00
V
2 °C 9 mi 4.600 ft 260° 260° 19 - 26 kt METAR CYTZ 012000Z AUTO 26019G26KT 9SM SCT039 OVC046 02/M04 A3036 RMK SLP287
14:00
V
2 °C 9 mi 3.600 ft 270° 270° 20 - 31 kt METAR CYTZ 011900Z AUTO 27020G31KT 9SM BKN036 OVC043 02/M05 A3035 RMK SLP282
13:05
V
1 °C 9 mi 3.100 ft 260° 260° 18 - 29 kt SPECI CYTZ 011805Z AUTO 26018G29KT 9SM OVC031 01/M04 A3033 RMK SLP277
13:00
V
1 °C 9 mi 3.300 ft 270° 270° 20 - 28 kt METAR CYTZ 011800Z AUTO 27020G28KT 9SM -RA OVC033 01/M04 A3033 RMK SLP277
12:53
V
1 °C 9 mi 3.300 ft 260° 260° 22 - 30 kt METAR CYTZ 011753Z AUTO 26022G30KT 9SM -RA BKN033 OVC042 01/M04 A3033 RMK SLP276
12:00
V
2 °C 9 mi 3.600 ft 270° 270° 21 - 29 kt METAR CYTZ 011700Z AUTO 27021G29KT 9SM BKN036 OVC049 02/M04 A3030 RMK SLP267
11:00
V
2 °C 9 mi 3.700 ft 270° 270° 19 - 28 kt METAR CYTZ 011600Z AUTO 27019G28KT 9SM OVC037 02/M04 A3029 RMK SLP262
10:00
V
1 °C 9 mi - 270° 270° 22 - 30 kt METAR CYTZ 011500Z AUTO 27022G30KT 9SM FEW029 01/M04 A3025 RMK SLP250
09:00
V
0 °C 9 mi - 270° 270° 19 - 29 kt METAR CYTZ 011400Z AUTO 27019G29KT 9SM CLR M00/M04 A3021 RMK SLP237
08:00
V
-1 °C 9 mi - 260° 260° 23 - 29 kt METAR CYTZ 011300Z AUTO 26023G29KT 9SM CLR M01/M05 A3017 RMK SLP223
07:00
V
-1 °C 9 mi 3.500 ft 260° 260° 24 kt METAR CYTZ 011200Z AUTO 26024KT 9SM BKN035 M01/M06 A3015 RMK SLP215
06:00
V
-1 °C 9 mi 3.500 ft 270° 270° 21 - 27 kt METAR CYTZ 011100Z AUTO 27021G27KT 9SM OVC035 M01/M05 A3010 RMK SLP199
05:00
V
-1 °C 9 mi 5.500 ft 270° 270° 27 - 32 kt METAR CYTZ 011000Z AUTO 27027G32KT 9SM -SN OVC055 M01/M06 A3005 RMK SLP182
04:51
V
-1 °C 9 mi 5.500 ft 270° 270° 21 - 29 kt SPECI CYTZ 010951Z AUTO 27021G29KT 9SM -SN OVC055 M01/M06 A3005 RMK SLP180
04:00
V
-1 °C 9 mi 5.000 ft 260° 260° 19 - 26 kt METAR CYTZ 010900Z AUTO 26019G26KT 9SM FEW036 OVC050 M01/M06 A3002 RMK SLP170
03:49
V
-1 °C 9 mi 5.000 ft 260° 260° 18 - 28 kt SPECI CYTZ 010849Z AUTO 26018G28KT 9SM FEW036 OVC050 M01/M07 A3002 RMK SLP170
03:32
V
-1 °C 9 mi 5.000 ft 260° 260° 21 - 27 kt METAR CYTZ 010832Z AUTO 26021G27KT 9SM -SN SCT040 OVC050 M01/M06 A3001 RMK SLP168
03:00
V
-1 °C 9 mi 4.200 ft 260° 260° 21 - 30 kt METAR CYTZ 010800Z AUTO 26021G30KT 9SM BKN042 OVC066 M01/M06 A2999 RMK SLP162
02:00
V
-1 °C 9 mi - 270° 270° 19 - 26 kt METAR CYTZ 010700Z AUTO 27019G26KT 9SM SCT071 M01/M06 A2997 RMK SLP154
01:00
V
-1 °C 9 mi 8.100 ft 270° 270° 22 - 29 kt METAR CYTZ 010600Z AUTO 27022G29KT 9SM FEW038 BKN081 M01/M05 A2993 RMK SLP141
00:00
V
-1 °C 9 mi 7.600 ft 260° 260° 17 - 25 kt METAR CYTZ 010500Z AUTO 26017G25KT 9SM SCT034 SCT045 OVC076 M01/M05 A2992 RMK SLP136

30 novembre 2022

Temps Code Temps Temp. Vue Base cloud Vent METAR/SPECI
23:02
V
-1 °C 9 mi 7.100 ft 270° 270° 18 - 28 kt METAR CYTZ 010402Z AUTO 27018G28KT 9SM SCT007 OVC071 M01/M04 A2990 RMK SLP130
23:00
V
-1 °C 9 mi 7.100 ft 270° 270° 18 - 28 kt METAR CYTZ 010400Z AUTO 27018G28KT 9SM -SN SCT007 OVC071 M01/M04 A2990 RMK SLP129
22:55
V
-1 °C 9 mi 6.600 ft 270° 270° 21 - 28 kt METAR CYTZ 010355Z AUTO 27021G28KT 9SM -SN SCT007 OVC066 M01/M03 A2990 RMK SLP129
22:35
L
-1 °C ¾ mi 700 ft 280° 280° 18 - 27 kt METAR CYTZ 010335Z AUTO 28018G27KT 3/4SM R26/3000VP6000FT -SN BKN007 BKN014 OVC018 M01/M02 A2990 RMK SLP129
22:30
I
-1 °C 1¾ mi 1.100 ft 290° 290° 15 - 24 kt METAR CYTZ 010330Z AUTO 29015G24KT 1 3/4SM -SN BKN011 BKN014 OVC018 M01/M03 A2989 RMK SLP128
22:15
I
-1 °C 2 mi 1.100 ft 260° 260° 17 - 22 kt METAR CYTZ 010315Z AUTO 26017G22KT 2SM -SN BKN011 OVC018 M01/M02 A2989 RMK SLP126
22:00
I
-1 °C 1¼ mi 1.100 ft 270° 270° 20 - 26 kt METAR CYTZ 010300Z AUTO 27020G26KT 1 1/4SM -SN BKN011 BKN017 BKN022 OVC030 M01/M02 A2989 RMK SLP125
21:57
I
-1 °C 1¾ mi 1.700 ft 260° 260° 18 - 26 kt METAR CYTZ 010257Z AUTO 26018G26KT 1 3/4SM -SN SCT013 BKN017 BKN022 OVC030 M01/M02 A2988 RMK SLP125
21:27
M
0 °C 6 mi 1.900 ft 260° 260° 16 - 21 kt METAR CYTZ 010227Z AUTO 26016G21KT 6SM -SN SCT013 BKN019 OVC028 M00/M02 A2988 RMK SLP124
21:19
M
0 °C 4 mi 2.200 ft 250° 250° 14 - 21 kt METAR CYTZ 010219Z AUTO 25014G21KT 4SM -SN SCT015 BKN022 OVC028 M00/M02 A2988 RMK SLP124
21:10
M
0 °C 9 mi 2.700 ft 240° 240° 15 - 22 kt METAR CYTZ 010210Z AUTO 24015G22KT 9SM -SN SCT022 BKN027 OVC033 M00/M02 A2988 RMK SLP123
21:03
M
0 °C 9 mi 2.700 ft 240° 240° 16 - 24 kt METAR CYTZ 010203Z AUTO 24016G24KT 9SM FEW023 BKN027 OVC036 00/M03 A2987 RMK SLP122
21:00
M
0 °C 9 mi 2.900 ft 240° 240° 15 - 24 kt METAR CYTZ 010200Z AUTO 24015G24KT 9SM -UP BKN029 OVC036 00/M03 A2987 RMK SLP121
20:58
V
0 °C 9 mi 3.300 ft 250° 250° 17 - 24 kt METAR CYTZ 010158Z AUTO 25017G24KT 9SM -UP SCT026 BKN033 OVC040 00/M04 A2987 RMK SLP121
20:52
V
0 °C 9 mi 3.300 ft 240° 240° 16 - 23 kt SPECI CYTZ 010152Z AUTO 24016G23KT 9SM -SN -UP FEW026 BKN033 OVC040 00/M03 A2987 RMK SLP121
20:43
V
0 °C 9 mi 3.300 ft 250° 250° 16 - 26 kt METAR CYTZ 010143Z AUTO 25016G26KT 9SM -RASN FEW026 BKN033 OVC040 00/M05 A2987 RMK SLP120
20:00
V
1 °C 9 mi 3.700 ft 250° 250° 23 - 36 kt METAR CYTZ 010100Z AUTO 25023G36KT 9SM BKN037 OVC045 01/M05 A2985 RMK SLP113
19:30
V
1 °C 9 mi 4.100 ft 270° 270° 27 - 34 kt METAR CYTZ 010030Z AUTO 27027G34KT 9SM BKN041 OVC071 01/M06 A2984 RMK SLP110
19:00
V
1 °C 9 mi 3.800 ft 250° 250° 16 - 26 kt METAR CYTZ 010000Z AUTO 25016G26KT 9SM BKN038 BKN047 OVC060 01/M05 A2984 RMK SLP110
18:00
V
1 °C 9 mi 4.300 ft 270° 270° 15 - 26 kt METAR CYTZ 302300Z AUTO 27015G26KT 9SM SCT037 BKN043 OVC055 01/M05 A2982 RMK SLP104
17:56
V
1 °C 9 mi 3.700 ft 270° 270° 18 - 26 kt METAR CYTZ 302256Z AUTO 27018G26KT 9SM -RA BKN037 OVC055 01/M05 A2982 RMK SLP103
17:43
V
1 °C 9 mi 5.500 ft 260° 260° 23 - 31 kt METAR CYTZ 302243Z AUTO 26023G31KT 9SM -RA FEW035 SCT042 OVC055 01/M05 A2981 RMK SLP099
17:14
V
1 °C 9 mi 4.700 ft 260° 260° 26 - 32 kt METAR CYTZ 302214Z AUTO 26026G32KT 9SM BKN047 OVC060 01/M06 A2979 RMK SLP092
17:01
V
1 °C 9 mi 4.500 ft 270° 270° 21 - 31 kt SPECI CYTZ 302201Z AUTO 27021G31KT 9SM -RA OVC045 01/M06 A2979 RMK SLP091
17:00
V
1 °C 9 mi 4.500 ft 270° 270° 22 - 32 kt METAR CYTZ 302200Z AUTO 27022G32KT 9SM OVC045 01/M06 A2978 RMK SLP090
16:59
V
1 °C 9 mi 4.500 ft 270° 270° 22 - 34 kt METAR CYTZ 302159Z AUTO 27022G34KT 9SM OVC045 01/M06 A2979 RMK SLP091
16:49
V
1 °C 9 mi 4.300 ft 260° 260° 24 - 34 kt SPECI CYTZ 302149Z AUTO 26024G34KT 9SM -RA OVC043 01/M06 A2978 RMK SLP088
16:42
V
1 °C 9 mi 4.000 ft 260° 260° 26 - 34 kt METAR CYTZ 302142Z AUTO 26026G34KT 9SM BKN040 OVC047 01/M06 A2977 RMK SLP086
16:33
V
1 °C 9 mi 3.700 ft 260° 260° 29 - 39 kt METAR CYTZ 302133Z AUTO 26029G39KT 9SM -RA BKN037 OVC045 01/M06 A2976 RMK SLP083
16:27
V
1 °C 9 mi 3.700 ft 260° 260° 25 - 38 kt METAR CYTZ 302127Z AUTO 26025G38KT 9SM -RASN OVC037 01/M05 A2976 RMK PRESRR SLP082
16:19
V
1 °C 9 mi 3.500 ft 280° 280° 23 - 32 kt METAR CYTZ 302119Z AUTO 28023G32KT 9SM -SN OVC035 01/M05 A2975 RMK SLP080
16:13
V
2 °C 9 mi 3.500 ft 270° 270° 26 - 32 kt METAR CYTZ 302113Z AUTO 27026G32KT 9SM -RASN OVC035 02/M05 A2975 RMK SLP078
16:00
V
2 °C 9 mi 3.500 ft 270° 270° 20 - 29 kt METAR CYTZ 302100Z AUTO 27020G29KT 9SM -RA OVC035 02/M04 A2974 RMK SLP076
15:55
V
2 °C 9 mi 3.500 ft 270° 270° 19 - 27 kt METAR CYTZ 302055Z AUTO 27019G27KT 9SM -RA OVC035 02/M05 A2974 RMK PRESRR SLP075
15:45
V
2 °C 9 mi 3.700 ft 280° 280° 20 - 32 kt SPECI CYTZ 302045Z AUTO 28020G32KT 9SM -RA -UP OVC037 02/M05 A2973 RMK PRESRR SLP072
15:38
V
2 °C 9 mi 3.700 ft 280° 280° 27 - 38 kt METAR CYTZ 302038Z AUTO 28027G38KT 9SM -RA OVC037 02/M05 A2972 RMK PRESRR SLP069
15:00
V
2 °C 9 mi 3.900 ft 260° 260° 30 - 39 kt METAR CYTZ 302000Z AUTO 26030G39KT 9SM OVC039 02/M04 A2968 RMK PRESRR SLP056
14:00
V
4 °C 9 mi 3.900 ft 270° 270° 24 - 34 kt METAR CYTZ 301900Z AUTO 27024G34KT 9SM OVC039 04/M02 A2961 RMK PRESRR SLP031
13:37
V
4 °C 9 mi 3.000 ft 260° 260° 28 - 39 kt METAR CYTZ 301837Z AUTO 26028G39KT 9SM SCT024 BKN030 OVC036 04/M01 A2959 RMK PRESRR SLP025
13:33
M
4 °C 9 mi 2.400 ft 270° 270° 27 - 35 kt METAR CYTZ 301833Z AUTO 27027G35KT 9SM BKN024 BKN033 OVC041 04/00 A2959 RMK SLP024
13:27
M
4 °C 7 mi 2.700 ft 270° 270° 28 - 35 kt SPECI CYTZ 301827Z AUTO 27028G35KT 7SM -RA SCT022 BKN027 BKN034 OVC041 04/01 A2958 RMK PRESRR SLP022
13:24
M
4 °C 5 mi 2.200 ft 270° 270° 28 - 35 kt METAR CYTZ 301824Z AUTO 27028G35KT 5SM -RA BKN022 BKN029 BKN034 OVC041 04/01 A2958 RMK PRESRR SLP020
13:19
M
4 °C 5 mi 2.600 ft 260° 260° 26 - 35 kt SPECI CYTZ 301819Z AUTO 26026G35KT 5SM -RA FEW021 BKN026 BKN033 OVC041 04/01 A2958 RMK PRESRR SLP020
13:17
V
4 °C 7 mi 3.300 ft 270° 270° 28 - 35 kt METAR CYTZ 301817Z AUTO 27028G35KT 7SM -RA FEW021 SCT026 BKN033 OVC041 04/01 A2957 RMK PRESRR SLP018
13:00
M
5 °C 9 mi 2.600 ft 270° 270° 25 - 37 kt METAR CYTZ 301800Z AUTO 27025G37KT 9SM BKN026 BKN034 05/01 A2954 RMK SLP009
12:29
V
5 °C 9 mi 3.000 ft 280° 280° 22 - 31 kt METAR CYTZ 301729Z AUTO 28022G31KT 9SM SCT021 BKN030 BKN071 BKN098 05/02 A2951 RMK PRESRR SLP999
12:24
V
5 °C 9 mi 3.000 ft 270° 270° 21 - 31 kt METAR CYTZ 301724Z AUTO 27021G31KT 9SM -RA SCT021 BKN030 BKN071 OVC093 05/02 A2951 RMK PRESRR SLP997
12:00
M
6 °C 9 mi 2.100 ft 290° 290° 23 - 32 kt METAR CYTZ 301700Z AUTO 29023G32KT 9SM -RA BKN021 BKN026 BKN031 OVC055 06/03 A2949 RMK PRESRR SLP989
11:50
M
6 °C 9 mi 2.300 ft 290° 290° 21 - 28 kt SPECI CYTZ 301650Z AUTO 29021G28KT 9SM -RA BKN023 BKN028 BKN043 OVC055 06/03 A2947 RMK SLP984
11:00
V
8 °C 9 mi 5.000 ft 300° 300° 20 - 29 kt METAR CYTZ 301600Z AUTO 30020G29KT 9SM -RA FEW005 SCT036 SCT043 OVC050 08/06 A2944 RMK SLP974
10:51
V
8 °C 7 mi 3.600 ft 300° 300° 22 - 35 kt METAR CYTZ 301551Z AUTO 30022G35KT 7SM -RA SQ SCT005 SCT017 BKN036 OVC045 08/06 A2943 RMK SLP970
10:48
M
8 °C 8 mi 1.700 ft 290° 290° 22 - 37 kt SPECI CYTZ 301548Z AUTO 29022G37KT 8SM -RA SQ SCT005 BKN017 OVC042 08/07 A2943 RMK SLP970
10:38
I
8 °C 6 mi 500 ft 260° 260° 23 - 34 kt METAR CYTZ 301538Z AUTO 26023G34KT 220V280 6SM RA BR BKN005 BKN009 OVC015 08/07 A2942 RMK PRESRR SLP966
10:28
I
8 °C 6 mi 500 ft 250° 250° 7 kt METAR CYTZ 301528Z AUTO 25007KT 210V290 6SM -RA BR BKN005 OVC010 08/07 A2940 RMK SLP958
10:12
I
8 °C 5 mi 500 ft 270° 270° 5 kt METAR CYTZ 301512Z AUTO 27005KT 190V300 5SM RA BR OVC005 08/07 A2941 RMK SLP964
10:00
I
8 °C 9 mi 700 ft 230° 230° 5 kt METAR CYTZ 301500Z AUTO 23005KT 200V300 9SM -RA OVC007 08/07 A2942 RMK SLP965
09:23
I
8 °C 7 mi 900 ft Var Var 4 kt METAR CYTZ 301423Z AUTO VRB04KT 7SM -RA OVC009 08/07 A2943 RMK PRESFR SLP969
09:14
I
8 °C 5 mi 900 ft 120° 120° 4 kt METAR CYTZ 301414Z AUTO 12004KT 060V220 5SM -RA BR OVC009 08/07 A2943 RMK PRESFR SLP971
09:00
M
8 °C 9 mi 1.100 ft 130° 130° 6 kt METAR CYTZ 301400Z AUTO 13006KT 090V180 9SM -RA OVC011 08/07 A2945 RMK PRESFR SLP977
08:28
M
8 °C 9 mi 1.100 ft 140° 140° 5 kt METAR CYTZ 301328Z AUTO 14005KT 060V190 9SM -RA OVC011 08/07 A2948 RMK PRESFR SLP986
08:10
I
7 °C 6 mi 700 ft 100° 100° 6 kt METAR CYTZ 301310Z AUTO 10006KT 050V130 6SM -RA BR BKN007 OVC011 07/07 A2949 RMK SLP991
08:06
I
7 °C 4 mi 700 ft 090° 090° 6 kt SPECI CYTZ 301306Z AUTO 09006KT 050V130 4SM -RA BR OVC007 07/07 A2950 RMK SLP992
08:03
M
7 °C 4 mi 1.000 ft 060° 060° 8 kt METAR CYTZ 301303Z AUTO 06008KT 050V130 4SM -RA BR SCT005 OVC010 07/06 A2950 RMK SLP992
08:00
I
7 °C 3 mi 500 ft 090° 090° 5 kt METAR CYTZ 301300Z AUTO 09005KT 050V130 3SM -RA BR BKN005 OVC010 07/06 A2950 RMK SLP994
07:56
I
6 °C 3 mi 500 ft 080° 080° 7 kt METAR CYTZ 301256Z AUTO 08007KT 050V130 3SM -RA BR BKN005 OVC010 06/06 A2950 RMK SLP993
07:45
I
6 °C 2½ mi 1.200 ft 070° 070° 10 kt SPECI CYTZ 301245Z AUTO 07010KT 2 1/2SM -RA BR FEW005 OVC012 06/06 A2950 RMK PRESFR SLP994
07:36
I
6 °C 3 mi 1.200 ft 070° 070° 8 kt SPECI CYTZ 301236Z AUTO 07008KT 050V120 3SM -RA BR OVC012 06/06 A2952 RMK PRESFR SLP999
07:19
I
6 °C 2 mi 1.200 ft 080° 080° 8 kt METAR CYTZ 301219Z AUTO 08008KT 060V120 2SM -RA BR OVC012 06/06 A2954 RMK SLP005
07:00
I
6 °C 1¾ mi 1.200 ft 050° 050° 14 kt METAR CYTZ 301200Z AUTO 05014KT 1 3/4SM -RA BR OVC012 06/06 A2955 RMK PRESFR PCPN 3.2MM PAST HR SLP009
06:43
I
6 °C 2½ mi 1.200 ft 060° 060° 7 kt METAR CYTZ 301143Z AUTO 06007KT 2 1/2SM RA BR OVC012 06/06 A2956 RMK VIS VRB 2-3 SLP015
06:00
M
6 °C 4 mi 1.200 ft 060° 060° 14 kt METAR CYTZ 301100Z AUTO 06014KT 4SM -RA BR BKN012 OVC017 06/05 A2958 RMK SLP020
05:47
I
6 °C 3 mi 1.600 ft 060° 060° 13 kt METAR CYTZ 301047Z AUTO 06013KT 3SM -RA BR BKN016 OVC022 06/05 A2959 RMK SLP024
05:29
I
6 °C 2½ mi 2.100 ft 070° 070° 13 kt METAR CYTZ 301029Z AUTO 07013KT 2 1/2SM -RA BR BKN021 OVC030 06/05 A2960 RMK SLP028
05:24
I
6 °C 3 mi 2.300 ft 060° 060° 14 kt SPECI CYTZ 301024Z AUTO 06014KT 3SM -RA BR BKN023 OVC032 06/05 A2960 RMK SLP029
05:17
V
6 °C 5 mi 3.000 ft 060° 060° 14 kt METAR CYTZ 301017Z AUTO 06014KT 5SM -RA BR BKN030 OVC036 06/05 A2961 RMK SLP030
05:01
V
6 °C 6 mi 3.600 ft 070° 070° 13 kt METAR CYTZ 301001Z AUTO 07013KT 6SM -RA BR BKN036 OVC046 06/05 A2961 RMK SLP032
05:00
M
6 °C 4 mi 3.600 ft 060° 060° 13 kt METAR CYTZ 301000Z AUTO 06013KT 4SM -RA BR BKN036 OVC046 06/05 A2962 RMK SLP033
04:51
V
6 °C 5 mi 3.900 ft 060° 060° 14 kt SPECI CYTZ 300951Z AUTO 06014KT 5SM -RA BR BKN039 OVC046 06/05 A2962 RMK SLP034

Nous et des tiers suivons ton comportement Internet sur notre site Web à l'aide de cookies. Si tu continues, nous supposons que tu es d'accord avec notre Politique en matière de cookies.